Time;durP1;ratioP1;P1;durP2;ratioP2;P2;SDS_P1;SDS_P2;PMS_P1;PMS_P2;Temp;Humidity;BMP_temperature;BMP_pressure;BME280_temperature;BME280_humidity;BME280_pressure;Samples;Min_cycle;Max_cycle;Signal;HPM_P1;HPM_P2
2022/09/11 00:00:51;;;;;;;4.25;1.30;;;;;;;13.99;100.00;99814.75;4959267;28;20130;-84
2022/09/11 00:03:18;;;;;;;3.83;1.10;;;;;;;13.99;100.00;99818.28;4933647;29;20082;-83
2022/09/11 00:05:46;;;;;;;3.10;1.00;;;;;;;14.01;100.00;99812.25;4939965;29;20039;-82
2022/09/11 00:08:15;;;;;;;3.40;1.25;;;;;;;13.98;100.00;99811.19;4950079;29;20076;-75
2022/09/11 00:10:42;;;;;;;1.55;1.00;;;;;;;13.97;100.00;99812.41;4949795;28;20046;-76
2022/09/11 00:13:14;;;;;;;2.58;1.30;;;;;;;13.96;100.00;99816.44;4949062;29;20039;-77
2022/09/11 00:15:42;;;;;;;1.93;1.30;;;;;;;13.93;100.00;99816.59;4935676;29;20457;-77
2022/09/11 00:18:10;;;;;;;2.35;1.33;;;;;;;13.90;100.00;99804.38;4949878;29;20053;-77
2022/09/11 00:20:36;;;;;;;2.30;1.00;;;;;;;13.92;100.00;99818.63;4934581;29;20038;-77
2022/09/11 00:23:04;;;;;;;2.13;1.00;;;;;;;13.92;100.00;99806.69;4948693;29;20404;-76
2022/09/11 00:25:39;;;;;;;5.72;1.30;;;;;;;13.98;100.00;99808.41;4952904;29;20075;-77
2022/09/11 00:28:05;;;;;;;2.58;1.17;;;;;;;13.97;100.00;99806.84;4950553;29;20410;-77
2022/09/11 00:30:30;;;;;;;4.60;1.05;;;;;;;13.92;100.00;99807.47;4945896;29;20502;-77
2022/09/11 00:32:56;;;;;;;1.70;1.02;;;;;;;13.94;100.00;99802.19;4946882;28;20497;-77
2022/09/11 00:35:21;;;;;;;5.60;1.02;;;;;;;13.92;100.00;99798.31;4943436;29;20044;-76
2022/09/11 00:37:47;;;;;;;1.00;0.90;;;;;;;13.84;100.00;99794.28;4948681;28;20552;-76
2022/09/11 00:40:14;;;;;;;3.72;1.23;;;;;;;13.86;100.00;99787.03;4943053;28;20044;-76
2022/09/11 00:42:40;;;;;;;1.92;1.08;;;;;;;13.77;100.00;99783.47;4960075;28;20046;-77
2022/09/11 00:45:07;;;;;;;1.75;0.90;;;;;;;13.78;100.00;99796.16;4942625;29;20035;-76
2022/09/11 00:47:34;;;;;;;1.70;1.38;;;;;;;13.76;100.00;99793.81;4955952;28;20035;-77
2022/09/11 00:50:13;;;;;;;5.07;1.42;;;;;;;13.68;100.00;99792.59;4949517;29;20058;-77
2022/09/11 00:52:41;;;;;;;2.05;1.08;;;;;;;13.48;100.00;99795.06;4926720;29;20043;-76
2022/09/11 00:55:10;;;;;;;3.05;1.00;;;;;;;13.32;100.00;99787.75;4946894;28;20523;-76
2022/09/11 00:57:45;;;;;;;1.63;1.00;;;;;;;13.25;100.00;99792.84;4942840;28;20094;-76
2022/09/11 01:00:12;;;;;;;2.97;1.15;;;;;;;13.25;100.00;99804.78;4944741;29;20123;-76
2022/09/11 01:02:39;;;;;;;2.75;1.20;;;;;;;13.27;100.00;99812.66;5207112;22;20052;-76
2022/09/11 01:05:05;;;;;;;1.63;1.00;;;;;;;13.20;100.00;99815.72;5026772;28;20502;-76
2022/09/11 01:07:32;;;;;;;2.38;1.02;;;;;;;13.07;100.00;99816.59;5030233;28;20048;-76
2022/09/11 01:09:58;;;;;;;2.78;1.30;;;;;;;13.02;100.00;99808.84;5029824;28;20134;-76
2022/09/11 01:12:35;;;;;;;2.63;1.10;;;;;;;13.07;100.00;99799.88;5014108;28;20097;-76
2022/09/11 01:15:05;;;;;;;1.95;0.88;;;;;;;13.13;100.00;99802.09;5028113;28;20033;-76
2022/09/11 01:17:49;;;;;;;1.55;1.20;;;;;;;13.18;100.00;99809.88;5032016;28;20068;-76
2022/09/11 01:20:30;;;;;;;2.60;1.10;;;;;;;13.19;100.00;99794.69;5031854;28;20051;-76
2022/09/11 01:23:04;;;;;;;1.88;1.25;;;;;;;13.29;100.00;99793.47;5007027;28;20034;-77
2022/09/11 01:25:48;;;;;;;;;;;;;;;13.33;100.00;99794.09;5030816;28;20051;-76
2022/09/11 01:28:22;;;;;;;3.78;1.13;;;;;;;13.32;100.00;99792.53;5031449;28;20337;-77
2022/09/11 01:30:56;;;;;;;2.33;1.00;;;;;;;13.41;100.00;99795.34;5008649;28;20052;-76
2022/09/11 01:33:43;;;;;;;2.78;1.00;;;;;;;13.42;100.00;99794.13;5010837;28;20061;-76
2022/09/11 01:36:17;;;;;;;2.85;1.10;;;;;;;13.46;100.00;99808.69;5003649;28;20053;-76
2022/09/11 01:38:47;;;;;;;5.55;1.20;;;;;;;13.44;100.00;99800.00;5011884;28;20037;-76
2022/09/11 01:41:28;;;;;;;1.80;1.02;;;;;;;13.28;100.00;99801.06;5003147;28;20117;-82
2022/09/11 01:44:01;;;;;;;3.08;1.38;;;;;;;13.19;100.00;99800.25;5003731;28;20201;-84
2022/09/11 01:46:28;;;;;;;1.35;0.90;;;;;;;13.20;100.00;99807.38;5006934;28;20075;-84
2022/09/11 01:49:14;;;;;;;2.22;1.02;;;;;;;13.28;100.00;99808.63;5007363;28;20033;-83
2022/09/11 01:51:40;;;;;;;2.20;1.15;;;;;;;13.24;100.00;99785.72;5027737;28;20069;-83
2022/09/11 01:54:14;;;;;;;2.22;1.10;;;;;;;13.24;100.00;99785.72;5028068;28;20107;-84
2022/09/11 01:56:47;;;;;;;1.80;1.00;;;;;;;13.24;100.00;99778.16;5011885;28;20073;-76
2022/09/11 01:59:17;;;;;;;1.80;0.90;;;;;;;13.28;100.00;99783.56;5029120;28;20052;-83
2022/09/11 02:01:50;;;;;;;1.38;1.08;;;;;;;13.20;100.00;99788.66;5007954;28;20042;-84
2022/09/11 02:04:36;;;;;;;1.55;1.02;;;;;;;13.18;100.00;99788.34;5005769;28;20064;-83
2022/09/11 02:07:04;;;;;;;3.22;1.30;;;;;;;13.06;100.00;99789.97;5009763;28;20049;-84
2022/09/11 02:09:36;;;;;;;2.20;1.60;;;;;;;12.98;100.00;99787.97;4993527;28;20415;-84
2022/09/11 02:12:05;;;;;;;2.70;1.05;;;;;;;12.99;100.00;99793.06;4991885;28;20112;-84
2022/09/11 02:14:40;;;;;;;3.50;1.20;;;;;;;12.98;100.00;99793.53;4993637;28;20487;-84
2022/09/11 02:17:09;;;;;;;2.88;1.30;;;;;;;13.04;100.00;99800.81;4992462;28;20491;-84
2022/09/11 02:19:35;;;;;;;1.23;1.00;;;;;;;13.13;100.00;99793.75;4989534;28;20050;-77
2022/09/11 02:22:01;;;;;;;1.40;1.00;;;;;;;13.15;100.00;99788.47;5010377;28;20030;-76
2022/09/11 02:24:27;;;;;;;1.60;1.00;;;;;;;13.15;100.00;99782.91;4996694;28;20045;-76
2022/09/11 02:27:05;;;;;;;2.10;1.10;;;;;;;13.24;100.00;99780.94;5009886;28;20242;-76
2022/09/11 02:29:31;;;;;;;2.92;1.02;;;;;;;13.27;100.00;99790.38;5002640;28;20047;-76
2022/09/11 02:31:59;;;;;;;2.00;1.30;;;;;;;13.31;100.00;99791.78;5009604;28;20491;-76
2022/09/11 02:34:31;;;;;;;2.75;1.27;;;;;;;13.32;100.00;99784.97;5010276;28;20112;-76
2022/09/11 02:37:00;;;;;;;2.95;1.52;;;;;;;13.39;100.00;99786.66;4989317;28;20393;-76
2022/09/11 02:39:40;;;;;;;1.73;1.20;;;;;;;13.40;100.00;99783.44;5002637;28;20030;-83
2022/09/11 02:42:39;;;;;;;1.63;1.15;;;;;;;13.42;100.00;99782.97;4999237;28;20403;-83
2022/09/11 02:46:03;;;;;;;3.60;1.30;;;;;;;13.46;100.00;99789.19;4999001;28;20049;-84
2022/09/11 02:48:47;;;;;;;2.40;1.10;;;;;;;13.45;100.00;99784.84;4957826;28;20092;-83
2022/09/11 02:51:32;;;;;;;2.42;1.33;;;;;;;13.39;100.00;99797.81;4967171;28;20081;-83
2022/09/11 02:54:12;;;;;;;3.47;1.25;;;;;;;13.41;100.00;99795.34;4977221;28;20050;-76
2022/09/11 02:56:51;;;;;;;5.55;1.40;;;;;;;13.43;100.00;99790.84;5003310;28;20073;-76
2022/09/11 02:59:27;;;;;;;4.65;1.52;;;;;;;13.38;100.00;99799.84;4993939;28;20053;-77
2022/09/11 03:01:58;;;;;;;3.47;1.40;;;;;;;13.12;100.00;99800.53;5007452;28;20034;-77
2022/09/11 03:04:25;;;;;;;3.83;1.60;;;;;;;13.14;100.00;99789.75;4992903;28;20041;-76
2022/09/11 03:06:52;;;;;;;3.55;1.58;;;;;;;13.20;100.00;99796.25;4992708;28;20042;-76
2022/09/11 03:09:18;;;;;;;3.67;1.42;;;;;;;13.28;100.00;99789.13;5005322;28;20046;-76
2022/09/11 03:11:46;;;;;;;4.68;1.35;;;;;;;13.31;100.00;99802.91;5008251;28;20515;-75
2022/09/11 03:14:12;;;;;;;2.63;1.40;;;;;;;13.34;100.00;99801.22;5008582;28;20044;-76
2022/09/11 03:16:39;;;;;;;2.15;1.40;;;;;;;13.38;100.00;99796.28;5008866;28;20046;-75
2022/09/11 03:19:07;;;;;;;3.75;1.50;;;;;;;13.41;100.00;99798.16;5008814;28;20041;-77
2022/09/11 03:21:33;;;;;;;3.42;1.50;;;;;;;13.43;100.00;99787.28;5006704;28;20088;-75
2022/09/11 03:24:00;;;;;;;4.13;1.38;;;;;;;13.35;100.00;99786.03;5014170;28;20755;-75
2022/09/11 03:26:26;;;;;;;3.10;1.30;;;;;;;13.38;100.00;99780.34;5008715;28;20049;-77
2022/09/11 03:28:52;;;;;;;2.85;1.38;;;;;;;13.30;100.00;99781.09;4991927;28;20641;-77
2022/09/11 03:31:18;;;;;;;3.78;1.17;;;;;;;13.20;100.00;99779.53;5008633;28;20044;-77
2022/09/11 03:33:45;;;;;;;1.48;1.10;;;;;;;13.16;100.00;99774.09;5009042;28;20052;-77
2022/09/11 03:36:12;;;;;;;4.18;1.48;;;;;;;13.09;100.00;99777.16;4985392;28;20030;-84
2022/09/11 03:38:38;;;;;;;3.13;1.67;;;;;;;13.11;100.00;99773.94;5005083;28;20042;-85
2022/09/11 03:41:04;;;;;;;2.78;1.20;;;;;;;13.11;100.00;99785.06;5019565;28;20376;-85
2022/09/11 03:43:32;;;;;;;3.65;1.30;;;;;;;13.11;100.00;99776.72;5006468;28;20533;-84
2022/09/11 03:45:59;;;;;;;1.75;1.30;;;;;;;13.09;100.00;99780.72;5006506;28;20136;-84
2022/09/11 03:48:25;;;;;;;3.17;1.67;;;;;;;12.97;100.00;99772.50;5008246;28;20041;-84
2022/09/11 03:50:50;;;;;;;3.55;1.40;;;;;;;12.83;100.00;99768.25;5006830;28;20041;-85
2022/09/11 03:53:16;;;;;;;3.15;1.45;;;;;;;12.85;100.00;99770.59;5006034;28;20042;-85
2022/09/11 03:55:44;;;;;;;3.08;1.40;;;;;;;12.87;100.00;99774.47;5002198;28;20046;-77
2022/09/11 03:58:10;;;;;;;2.35;1.42;;;;;;;12.81;100.00;99779.09;5006415;28;20053;-77
2022/09/11 04:00:42;;;;;;;5.47;1.48;;;;;;;12.77;100.00;99774.91;5008699;28;20044;-77
2022/09/11 04:03:09;;;;;;;3.22;1.40;;;;;;;12.79;100.00;99783.53;4963940;28;20050;-77
2022/09/11 04:05:42;;;;;;;3.85;1.27;;;;;;;12.87;100.00;99779.25;5008902;28;20128;-77
2022/09/11 04:08:12;;;;;;;5.38;1.40;;;;;;;12.89;100.00;99779.56;4989714;28;20038;-77
2022/09/11 04:10:39;;;;;;;2.85;1.27;;;;;;;12.82;100.00;99782.66;5004608;28;20123;-77
2022/09/11 04:13:07;;;;;;;4.38;1.50;;;;;;;12.79;100.00;99778.75;5004848;28;20069;-85
2022/09/11 04:15:32;;;;;;;3.22;1.40;;;;;;;12.89;100.00;99779.56;5006335;28;20506;-85
2022/09/11 04:17:58;;;;;;;3.60;1.65;;;;;;;12.83;100.00;99765.47;5004774;28;20052;-85
2022/09/11 04:20:25;;;;;;;5.25;1.70;;;;;;;12.73;100.00;99777.81;5002951;28;20041;-85
2022/09/11 04:22:51;;;;;;;5.22;1.90;;;;;;;12.78;100.00;99782.75;5007618;28;20041;-84
2022/09/11 04:25:17;;;;;;;3.53;1.30;;;;;;;12.84;100.00;99792.09;5006876;28;20025;-84
2022/09/11 04:27:42;;;;;;;3.33;1.50;;;;;;;12.92;100.00;99793.34;5005218;28;20046;-85
2022/09/11 04:30:12;;;;;;;3.58;1.50;;;;;;;12.90;100.00;99790.22;5006937;28;20044;-84
2022/09/11 04:32:38;;;;;;;3.53;1.48;;;;;;;12.91;100.00;99796.56;5007193;28;20092;-77
2022/09/11 04:35:04;;;;;;;2.85;1.70;;;;;;;12.96;100.00;99799.56;5008418;28;20084;-77
2022/09/11 04:37:35;;;;;;;3.53;1.45;;;;;;;13.05;100.00;99798.81;5004242;28;20120;-77
2022/09/11 04:40:02;;;;;;;6.13;2.13;;;;;;;13.12;100.00;99797.75;5011599;28;20077;-77
2022/09/11 04:42:29;;;;;;;2.88;1.70;;;;;;;13.09;100.00;99775.16;4993312;28;20136;-77
2022/09/11 04:44:55;;;;;;;2.78;1.50;;;;;;;13.20;100.00;99782.31;5002397;28;20527;-77
2022/09/11 04:47:21;;;;;;;2.80;1.40;;;;;;;13.24;100.00;99780.94;4990764;28;20403;-78
2022/09/11 04:49:47;;;;;;;1.95;1.25;;;;;;;13.30;100.00;99778.31;5003978;28;20042;-77
2022/09/11 04:52:14;;;;;;;4.50;1.95;;;;;;;13.29;100.00;99785.91;4990632;28;20066;-85
2022/09/11 04:54:40;;;;;;;2.63;1.08;;;;;;;13.30;100.00;99779.09;5009368;28;20428;-85
2022/09/11 04:57:08;;;;;;;2.97;1.40;;;;;;;13.16;100.00;99762.97;4999927;28;20041;-84
2022/09/11 04:59:34;;;;;;;1.88;1.20;;;;;;;13.16;100.00;99774.09;4995737;28;20510;-84
2022/09/11 05:02:04;;;;;;;2.58;1.25;;;;;;;13.11;100.00;99773.94;4990887;28;20044;-84
2022/09/11 05:04:30;;;;;;;4.78;1.45;;;;;;;13.21;100.00;99783.88;5005746;28;20061;-84
2022/09/11 05:06:56;;;;;;;3.40;1.40;;;;;;;13.24;100.00;99771.78;5009010;28;20507;-84
2022/09/11 05:09:24;;;;;;;3.22;1.45;;;;;;;13.32;100.00;99787.75;5009103;28;20038;-84
2022/09/11 05:11:50;;;;;;;4.10;2.08;;;;;;;13.27;100.00;99777.22;5010716;28;20042;-84
2022/09/11 05:14:17;;;;;;;3.88;1.88;;;;;;;13.41;100.00;99790.56;5009166;28;20133;-85
2022/09/11 05:16:45;;;;;;;2.25;1.40;;;;;;;13.45;100.00;99780.03;5011370;28;20073;-84
2022/09/11 05:19:11;;;;;;;3.20;1.30;;;;;;;13.53;100.00;99791.66;5010449;28;20039;-84
2022/09/11 05:21:38;;;;;;;2.55;1.38;;;;;;;13.49;100.00;99780.66;5024094;28;20418;-84
2022/09/11 05:24:04;;;;;;;2.05;1.40;;;;;;;13.56;100.00;99779.56;5009879;28;20089;-84
2022/09/11 05:26:34;;;;;;;4.28;1.60;;;;;;;13.63;100.00;99790.41;5010418;28;20042;-77
2022/09/11 05:29:07;;;;;;;3.03;1.40;;;;;;;13.67;100.00;99796.59;5007075;28;20046;-85
2022/09/11 05:31:38;;;;;;;2.30;1.60;;;;;;;13.72;100.00;99804.34;4991040;28;20045;-85
2022/09/11 05:34:04;;;;;;;2.58;1.33;;;;;;;13.69;100.00;99805.28;4996804;28;20034;-85
2022/09/11 05:36:30;;;;;;;3.50;1.70;;;;;;;13.58;100.00;99799.41;5027291;28;20083;-84
2022/09/11 05:38:57;;;;;;;4.43;1.75;;;;;;;13.66;100.00;99806.22;5009026;28;20045;-84
2022/09/11 05:41:23;;;;;;;4.65;1.55;;;;;;;13.68;100.00;99800.94;5010062;28;20092;-84
2022/09/11 05:43:50;;;;;;;3.63;1.75;;;;;;;13.83;100.00;99815.06;5014099;28;20042;-85
2022/09/11 05:46:18;;;;;;;4.05;1.70;;;;;;;13.88;100.00;99820.78;5019031;28;20054;-84
2022/09/11 05:48:46;;;;;;;4.00;1.80;;;;;;;13.99;100.00;99826.66;5001755;28;20054;-84
2022/09/11 05:51:20;;;;;;;4.53;1.70;;;;;;;14.02;100.00;99824.97;5008570;28;20469;-85
2022/09/11 05:53:49;;;;;;;5.85;1.48;;;;;;;14.03;100.00;99818.91;5004569;28;20042;-84
2022/09/11 05:56:17;;;;;;;3.13;1.60;;;;;;;14.16;100.00;99818.75;4994890;28;20049;-84
2022/09/11 05:58:45;;;;;;;2.83;1.50;;;;;;;14.31;100.00;99827.28;5014515;28;20038;-84
2022/09/11 06:01:17;;;;;;;3.55;1.52;;;;;;;14.41;100.00;99831.59;4990517;28;20418;-84
2022/09/11 06:03:48;;;;;;;3.65;1.60;;;;;;;14.51;100.00;99824.78;4975710;28;20411;-83
2022/09/11 06:06:15;;;;;;;2.20;1.40;;;;;;;14.52;100.00;99831.88;4985741;28;20043;-84
2022/09/11 06:08:43;;;;;;;3.47;1.65;;;;;;;14.59;100.00;99842.75;5011264;28;20049;-83
2022/09/11 06:11:11;;;;;;;2.55;1.63;;;;;;;14.62;100.00;99854.97;5012190;28;20095;-83
2022/09/11 06:13:43;;;;;;;4.95;1.80;;;;;;;14.57;100.00;99859.16;5010464;28;20629;-83
2022/09/11 06:16:17;;;;;;;2.53;1.60;;;;;;;14.54;100.00;99848.94;5010964;28;20034;-82
2022/09/11 06:18:44;;;;;;;2.70;1.35;;;;;;;14.55;100.00;99842.13;5009096;28;20539;-85
2022/09/11 06:21:11;;;;;;;4.35;1.60;;;;;;;14.70;100.00;99837.44;4993728;28;20045;-84
2022/09/11 06:23:53;;;;;;;2.63;1.83;;;;;;;14.90;100.00;99823.72;5004992;28;20580;-77
2022/09/11 06:26:22;;;;;;;4.15;1.40;;;;;;;15.20;100.00;99829.47;5016673;28;20569;-77
2022/09/11 06:28:47;;;;;;;2.45;1.60;;;;;;;15.52;100.00;99823.09;5015610;28;20046;-77
2022/09/11 06:31:19;;;;;;;2.78;1.60;;;;;;;16.02;100.00;99820.53;5009548;28;20062;-76
2022/09/11 06:33:46;;;;;;;4.50;2.15;;;;;;;16.39;100.00;99818.16;5007712;28;20049;-77
2022/09/11 06:36:16;;;;;;;3.47;1.50;;;;;;;16.36;100.00;99805.91;4996368;28;20029;-77
2022/09/11 06:38:45;;;;;;;2.50;1.60;;;;;;;16.43;100.00;99811.13;4995263;28;20061;-77
2022/09/11 06:41:15;;;;;;;3.97;1.40;;;;;;;16.44;100.00;99812.69;5005713;28;20045;-77
2022/09/11 06:43:42;;;;;;;2.83;1.30;;;;;;;16.49;100.00;99814.81;4992060;28;20038;-76
2022/09/11 06:46:13;;;;;;;1.55;1.20;;;;;;;16.40;100.00;99806.50;5009631;28;20091;-77
2022/09/11 06:48:42;;;;;;;1.80;1.38;;;;;;;16.46;100.00;99810.16;5009402;28;20046;-76
2022/09/11 06:51:11;;;;;;;3.35;1.38;;;;;;;16.47;100.00;99808.13;5022548;28;20041;-77
2022/09/11 06:53:41;;;;;;;3.83;1.20;;;;;;;16.43;100.00;99799.16;5021018;28;20048;-77
2022/09/11 06:56:12;;;;;;;2.75;1.20;;;;;;;16.46;100.00;99806.59;5006573;28;20054;-77
2022/09/11 06:58:44;;;;;;;2.58;1.35;;;;;;;16.34;100.00;99794.41;5007828;28;20096;-77
2022/09/11 07:01:12;;;;;;;1.70;1.35;;;;;;;16.34;100.00;99803.59;5006515;28;20052;-76
2022/09/11 07:03:44;;;;;;;3.42;1.20;;;;;;;16.42;100.00;99798.38;4989997;28;20042;-76
2022/09/11 07:06:12;;;;;;;4.57;1.60;;;;;;;16.56;100.00;99796.84;5007239;28;20413;-76
2022/09/11 07:08:40;;;;;;;3.30;1.30;;;;;;;16.82;100.00;99797.81;5008537;28;20083;-77
2022/09/11 07:11:07;;;;;;;3.70;1.40;;;;;;;17.09;100.00;99793.88;4991862;28;20456;-77
2022/09/11 07:13:34;;;;;;;3.72;1.25;;;;;;;17.37;100.00;99797.84;5006582;28;20052;-77
2022/09/11 07:16:12;;;;;;;3.40;1.38;;;;;;;17.57;100.00;99799.88;4990919;28;20085;-77
2022/09/11 07:18:42;;;;;;;2.75;1.20;;;;;;;17.75;100.00;99799.66;4991067;28;20048;-77
2022/09/11 07:21:13;;;;;;;3.47;1.40;;;;;;;17.66;100.00;99805.41;5007034;28;20136;-84
2022/09/11 07:23:42;;;;;;;2.90;1.48;;;;;;;17.72;100.00;99803.41;5007209;28;20085;-77
2022/09/11 07:26:11;;;;;;;3.92;1.40;;;;;;;17.87;100.00;99801.31;4990790;28;20125;-77
2022/09/11 07:28:38;;;;;;;3.78;1.50;;;;;;;17.91;100.00;99801.09;4991190;28;20085;-77
2022/09/11 07:31:09;;;;;;;1.50;1.10;;;;;;;18.17;100.00;99805.47;5006311;28;20042;-79
2022/09/11 07:33:37;;;;;;;3.55;1.20;;;;;;;18.05;100.00;99805.84;4988978;28;20046;-77
2022/09/11 07:36:10;;;;;;;3.13;1.42;;;;;;;18.16;100.00;99805.94;5010240;28;20026;-77
2022/09/11 07:38:41;;;;;;;2.15;1.27;;;;;;;18.25;100.00;99803.00;5006656;28;20515;-77
2022/09/11 07:41:09;;;;;;;2.83;1.40;;;;;;;18.20;100.00;99809.31;5007687;28;20050;-77
2022/09/11 07:43:36;;;;;;;3.08;1.13;;;;;;;18.46;100.00;99806.50;4985716;28;20045;-84
2022/09/11 07:46:03;;;;;;;1.52;1.05;;;;;;;18.68;98.67;99798.31;5009415;28;20046;-83
2022/09/11 07:48:30;;;;;;;4.18;1.48;;;;;;;18.94;94.00;99812.28;5008490;28;20030;-84
2022/09/11 07:50:57;;;;;;;2.53;1.30;;;;;;;18.94;93.71;99803.88;5006668;28;20464;-84
2022/09/11 07:53:24;;;;;;;2.03;1.05;;;;;;;19.10;93.15;99800.41;5005802;28;20046;-84
2022/09/11 07:55:50;;;;;;;1.52;1.15;;;;;;;19.30;90.89;99813.56;4992770;28;20038;-84
2022/09/11 07:58:17;;;;;;;1.90;1.17;;;;;;;19.92;88.87;99810.56;4989053;28;20078;-84
2022/09/11 08:00:44;;;;;;;3.28;1.23;;;;;;;20.50;82.77;99808.16;5010113;28;20040;-84
2022/09/11 08:03:16;;;;;;;1.75;0.95;;;;;;;20.53;76.08;99806.34;5024714;28;20111;-77
2022/09/11 08:05:42;;;;;;;1.73;0.73;;;;;;;20.69;77.49;99812.00;5008720;28;20430;-78
2022/09/11 08:08:10;;;;;;;1.13;0.90;;;;;;;20.00;79.16;99825.69;5007956;28;20228;-77
2022/09/11 08:10:39;;;;;;;1.00;0.70;;;;;;;20.23;78.24;99823.69;5009469;28;20228;-76
2022/09/11 08:13:05;;;;;;;1.88;0.60;;;;;;;20.32;78.22;99834.00;5002244;28;20042;-78
2022/09/11 08:15:31;;;;;;;3.05;1.08;;;;;;;20.56;78.06;99820.19;5006940;28;20092;-78
2022/09/11 08:17:58;;;;;;;3.17;0.80;;;;;;;20.63;78.27;99830.94;5008834;28;20046;-78
2022/09/11 08:20:24;;;;;;;2.05;0.82;;;;;;;20.47;74.62;99843.75;5009331;28;20115;-76
2022/09/11 08:22:49;;;;;;;1.90;0.90;;;;;;;20.68;76.12;99835.06;5000059;28;20041;-83
2022/09/11 08:25:17;;;;;;;1.23;0.80;;;;;;;21.08;73.95;99828.91;5008589;28;20073;-84
2022/09/11 08:27:43;;;;;;;1.08;0.65;;;;;;;20.70;70.60;99833.28;5006816;28;20492;-84
2022/09/11 08:30:10;;;;;;;1.45;0.60;;;;;;;20.75;72.95;99838.13;5007590;28;20038;-84
2022/09/11 08:32:36;;;;;;;2.25;0.90;;;;;;;21.02;71.56;99847.88;4973834;28;20128;-83
2022/09/11 08:35:01;;;;;;;1.73;0.98;;;;;;;21.19;70.70;99845.81;4975693;28;20046;-83
2022/09/11 08:37:28;;;;;;;0.88;0.52;;;;;;;21.35;71.45;99835.81;4986783;28;20507;-76
2022/09/11 08:39:53;;;;;;;1.88;0.93;;;;;;;21.53;74.01;99840.13;5008404;28;20041;-84
2022/09/11 08:42:19;;;;;;;2.47;1.10;;;;;;;21.60;75.64;99834.72;5006401;28;20030;-82
2022/09/11 08:44:49;;;;;;;3.97;1.20;;;;;;;21.47;77.38;99842.22;5008013;28;20034;-82
2022/09/11 08:47:28;;;;;;;0.90;0.70;;;;;;;21.31;76.72;99835.31;4987517;28;20521;-82
2022/09/11 08:50:13;;;;;;;1.30;0.80;;;;;;;21.54;76.70;99839.63;4981701;28;20129;-83
2022/09/11 08:52:40;;;;;;;3.28;1.02;;;;;;;21.87;73.37;99835.91;5017912;28;20049;-83
2022/09/11 08:55:12;;;;;;;2.13;1.10;;;;;;;21.75;74.27;99835.19;5003968;28;20040;-83
2022/09/11 08:57:41;;;;;;;2.15;0.90;;;;;;;21.77;73.97;99831.84;5010724;28;20046;-83
2022/09/11 09:00:23;;;;;;;4.47;1.30;;;;;;;21.92;80.41;99832.31;4987946;28;20117;-76
2022/09/11 09:03:18;;;;;;;1.90;1.38;;;;;;;21.81;80.84;99832.31;4982090;28;20054;-76
2022/09/11 09:05:54;;;;;;;1.52;1.00;;;;;;;21.70;76.87;99832.38;5023336;28;20081;-76
2022/09/11 09:08:23;;;;;;;2.33;1.17;;;;;;;21.02;75.89;99836.59;4978076;28;20045;-76
2022/09/11 09:10:59;;;;;;;1.55;0.90;;;;;;;21.38;76.04;99835.56;5007354;28;20054;-76
2022/09/11 09:13:28;;;;;;;2.63;1.17;;;;;;;21.15;75.77;99836.84;5005665;28;20041;-76
2022/09/11 09:16:31;;;;;;;3.50;1.00;;;;;;;21.32;75.38;99831.97;5011368;28;20034;-77
2022/09/11 09:19:02;;;;;;;;;;;;;;;21.63;74.23;99816.75;5006627;28;20458;-84
2022/09/11 09:21:34;;;;;;;1.77;0.70;;;;;;;21.49;69.48;99833.97;5004887;28;19964;-85
2022/09/11 09:24:02;;;;;;;1.75;0.70;;;;;;;21.49;70.67;99828.34;4985763;28;20050;-83
2022/09/11 09:26:38;;;;;;;0.80;0.60;;;;;;;21.40;69.85;99835.78;4992994;28;20092;-84
2022/09/11 09:29:10;;;;;;;2.90;0.70;;;;;;;21.45;71.18;99827.84;5004102;28;20042;-84
2022/09/11 09:31:37;;;;;;;2.08;0.80;;;;;;;21.83;70.16;99838.25;5008315;28;20047;-82
2022/09/11 09:34:05;;;;;;;2.28;0.73;;;;;;;21.29;69.51;99826.59;4990483;28;20050;-84
2022/09/11 09:36:38;;;;;;;2.58;0.85;;;;;;;21.47;68.36;99830.91;4996820;28;20044;-84
2022/09/11 09:39:15;;;;;;;0.60;0.60;;;;;;;21.88;67.47;99826.13;5008753;28;20038;-84
2022/09/11 09:42:01;;;;;;;2.05;0.65;;;;;;;22.37;64.13;99827.19;5019471;28;20104;-84
2022/09/11 09:44:45;;;;;;;2.40;0.70;;;;;;;22.42;66.11;99829.22;5003912;28;20053;-84
2022/09/11 09:47:12;;;;;;;1.17;0.47;;;;;;;22.94;60.50;99823.44;5009212;28;20034;-84
2022/09/11 09:49:38;;;;;;;3.05;0.68;;;;;;;23.28;58.03;99823.13;5007665;28;20069;-84
2022/09/11 09:52:24;;;;;;;0.95;0.40;;;;;;;23.20;57.34;99823.72;5008825;28;20176;-84
2022/09/11 09:55:01;;;;;;;1.15;0.40;;;;;;;23.52;54.65;99820.31;5004890;28;20046;-84
2022/09/11 09:57:35;;;;;;;1.95;0.65;;;;;;;23.46;57.92;99822.44;5004119;28;20450;-77
2022/09/11 10:00:10;;;;;;;1.52;0.40;;;;;;;23.84;53.23;99817.63;5006081;28;20054;-76
2022/09/11 10:02:44;;;;;;;1.00;0.50;;;;;;;23.37;54.28;99819.94;5007556;28;20054;-77
2022/09/11 10:05:17;;;;;;;1.55;0.60;;;;;;;23.94;54.65;99815.97;5005637;28;20054;-76
2022/09/11 10:07:50;;;;;;;0.50;0.50;;;;;;;24.45;53.27;99799.78;5006062;28;20418;-77
2022/09/11 10:10:36;;;;;;;1.80;0.60;;;;;;;24.61;51.39;99807.28;5006241;28;20045;-77
2022/09/11 10:13:17;;;;;;;1.25;0.60;;;;;;;24.50;51.85;99810.28;4992906;28;20124;-77
2022/09/11 10:15:43;;;;;;;1.05;0.60;;;;;;;24.24;51.67;99804.47;5012373;28;20045;-83
2022/09/11 10:18:28;;;;;;;0.73;0.57;;;;;;;23.87;51.62;99816.53;5007298;28;20369;-84
2022/09/11 10:21:12;;;;;;;1.05;0.50;;;;;;;23.78;49.98;99803.53;5002178;28;20052;-83
2022/09/11 10:23:46;;;;;;;1.35;0.63;;;;;;;23.68;50.87;99819.38;5008405;28;20073;-83
2022/09/11 10:26:36;;;;;;;1.60;0.50;;;;;;;23.39;52.14;99806.78;5000559;28;20116;-83
2022/09/11 10:29:10;;;;;;;1.45;0.47;;;;;;;23.34;52.23;99813.28;5003508;28;20133;-83
2022/09/11 10:31:39;;;;;;;0.70;0.38;;;;;;;23.50;52.32;99820.06;5002682;28;20125;-83
2022/09/11 10:34:05;;;;;;;0.93;0.40;;;;;;;23.16;52.91;99799.84;5004194;28;20152;-83
2022/09/11 10:36:30;;;;;;;1.30;0.50;;;;;;;22.72;54.06;99813.09;5000805;28;20034;-83
2022/09/11 10:38:57;;;;;;;1.13;0.45;;;;;;;22.75;53.78;99805.63;4987452;28;20350;-83
2022/09/11 10:41:27;;;;;;;1.35;0.60;;;;;;;23.07;54.12;99803.78;5001463;28;20050;-84
2022/09/11 10:44:10;;;;;;;0.40;0.40;;;;;;;23.84;50.99;99804.22;5017498;28;20107;-84
2022/09/11 10:46:38;;;;;;;0.30;0.30;;;;;;;23.94;51.16;99813.13;4999265;28;20061;-83
2022/09/11 10:49:04;;;;;;;2.15;0.70;;;;;;;23.25;52.46;99808.72;4999321;28;20619;-83
2022/09/11 10:51:32;;;;;;;0.70;0.63;;;;;;;23.02;54.46;99795.34;4999999;28;20648;-83
2022/09/11 10:54:07;;;;;;;0.77;0.50;;;;;;;23.37;53.40;99800.91;4996479;28;20050;-83
2022/09/11 10:56:37;;;;;;;1.52;0.60;;;;;;;23.12;53.67;99794.47;4999879;28;20133;-83
2022/09/11 10:59:11;;;;;;;1.20;0.60;;;;;;;23.17;54.15;99798.56;5008022;28;20057;-83
2022/09/11 11:01:36;;;;;;;1.48;0.60;;;;;;;23.17;53.97;99793.63;5002505;28;20042;-82
2022/09/11 11:04:02;;;;;;;1.42;0.60;;;;;;;23.47;54.03;99795.66;5004715;28;20567;-83
2022/09/11 11:06:33;;;;;;;2.00;0.80;;;;;;;23.71;54.10;99792.81;5008407;28;20076;-83
2022/09/11 11:09:08;;;;;;;1.13;0.60;;;;;;;23.48;54.13;99794.38;5009588;28;20046;-82
2022/09/11 11:12:08;;;;;;;1.45;0.52;;;;;;;23.51;54.47;99790.47;5009015;28;20077;-83
2022/09/11 11:14:40;;;;;;;2.75;2.22;;;;;;;23.33;55.24;99785.53;5006673;28;20053;-77
2022/09/11 11:17:18;;;;;;;1.38;0.57;;;;;;;23.01;55.98;99788.91;5006406;28;20054;-77
2022/09/11 11:20:06;;;;;;;1.25;0.68;;;;;;;22.96;55.41;99784.09;5002507;28;20068;-76
2022/09/11 11:22:44;;;;;;;1.38;0.70;;;;;;;22.89;54.39;99795.97;5006473;28;20045;-76
2022/09/11 11:25:13;;;;;;;0.65;0.50;;;;;;;22.97;54.64;99794.09;5007998;28;20042;-76
2022/09/11 11:28:03;;;;;;;1.77;0.70;;;;;;;22.62;55.77;99792.06;5004454;28;20061;-77
2022/09/11 11:30:35;;;;;;;2.90;0.80;;;;;;;22.48;56.82;99789.63;5008742;28;20052;-76
2022/09/11 11:33:27;;;;;;;2.22;1.08;;;;;;;22.43;57.41;99784.75;5006632;28;20491;-77
2022/09/11 11:36:31;;;;;;;1.60;0.57;;;;;;;22.54;58.29;99782.63;5018693;28;20391;-77
2022/09/11 11:39:35;;;;;;;0.70;0.40;;;;;;;22.72;56.93;99784.06;4963341;28;20133;-76
2022/09/11 11:42:07;;;;;;;1.77;0.52;;;;;;;22.98;55.12;99781.50;4965720;28;20145;-76
2022/09/11 11:44:45;;;;;;;0.93;0.40;;;;;;;23.51;55.46;99784.81;4996552;28;20049;-77
2022/09/11 11:47:13;;;;;;;1.50;0.50;;;;;;;23.84;51.69;99780.81;5005467;28;20240;-77